createdAt,value
2019-02-06T00:00:00.975Z,99.90
2019-02-06T00:02:27.185Z,99.90
2019-02-06T00:04:53.390Z,99.90
2019-02-06T00:07:19.709Z,99.90
2019-02-06T00:09:46.115Z,99.90
2019-02-06T00:12:12.446Z,99.90
2019-02-06T00:14:39.148Z,99.90
2019-02-06T00:17:05.595Z,99.90
2019-02-06T00:19:31.984Z,99.90
2019-02-06T00:21:58.307Z,99.90
2019-02-06T00:24:24.626Z,99.90
2019-02-06T00:26:50.925Z,99.90
2019-02-06T00:29:17.143Z,99.90
2019-02-06T00:31:43.551Z,99.90
2019-02-06T00:34:09.830Z,99.90
2019-02-06T00:36:36.150Z,99.90
2019-02-06T00:39:05.578Z,99.90
2019-02-06T00:41:31.823Z,99.90
2019-02-06T00:43:58.142Z,99.90
2019-02-06T00:46:24.343Z,99.90
2019-02-06T00:48:50.574Z,99.90
2019-02-06T00:51:16.971Z,99.90
2019-02-06T00:53:43.982Z,99.90
2019-02-06T00:56:10.178Z,99.90
2019-02-06T00:58:36.388Z,99.90
2019-02-06T01:01:03.620Z,99.90
2019-02-06T01:03:29.923Z,99.90
2019-02-06T01:05:56.351Z,99.90
2019-02-06T01:08:22.644Z,99.90
2019-02-06T01:10:48.968Z,99.90
2019-02-06T01:13:15.564Z,99.90
2019-02-06T01:15:41.783Z,99.90
2019-02-06T01:18:08.091Z,99.90
2019-02-06T01:20:34.414Z,99.90
2019-02-06T01:23:00.722Z,99.90
2019-02-06T01:25:27.030Z,99.90
2019-02-06T01:27:53.242Z,99.90
2019-02-06T01:30:24.736Z,99.90
2019-02-06T01:32:51.050Z,99.90
2019-02-06T01:35:17.450Z,99.90
2019-02-06T01:37:43.894Z,99.90
2019-02-06T01:40:13.906Z,99.90
2019-02-06T01:42:40.222Z,99.90
2019-02-06T01:45:09.722Z,99.90
2019-02-06T01:47:36.327Z,99.90
2019-02-06T01:50:06.010Z,99.90
2019-02-06T01:52:32.535Z,99.90
2019-02-06T01:54:58.847Z,99.90
2019-02-06T01:57:25.178Z,99.90
2019-02-06T01:59:51.461Z,99.90
2019-02-06T02:02:37.704Z,99.90
2019-02-06T02:05:06.228Z,99.90
2019-02-06T02:07:32.835Z,99.90
2019-02-06T02:09:59.155Z,99.90
2019-02-06T02:12:25.474Z,99.90
2019-02-06T02:14:51.890Z,99.90
2019-02-06T02:17:18.094Z,99.90
2019-02-06T02:19:44.323Z,99.90
2019-02-06T02:22:10.622Z,99.90
2019-02-06T02:24:36.838Z,99.90
2019-02-06T02:27:03.641Z,99.90
2019-02-06T02:29:29.969Z,99.90
2019-02-06T02:31:56.274Z,99.90
2019-02-06T02:34:22.495Z,99.90
2019-02-06T02:36:48.723Z,99.90
2019-02-06T02:39:14.958Z,99.90
2019-02-06T02:41:41.180Z,99.90
2019-02-06T02:44:07.609Z,99.90
2019-02-06T02:46:34.624Z,99.90
2019-02-06T02:49:00.831Z,99.90
2019-02-06T02:51:27.052Z,99.90
2019-02-06T02:53:53.346Z,99.90
2019-02-06T02:56:19.675Z,99.90
2019-02-06T02:58:46.058Z,99.90
2019-02-06T03:01:18.098Z,99.90
2019-02-06T03:03:48.968Z,99.90
2019-02-06T03:06:27.176Z,99.90
2019-02-06T03:08:43.298Z,99.90
2019-02-06T03:11:09.706Z,99.90
2019-02-06T03:13:35.934Z,99.90
2019-02-06T03:16:02.243Z,99.90
2019-02-06T03:18:28.658Z,99.90
2019-02-06T03:20:54.863Z,99.90
2019-02-06T03:23:21.691Z,99.90
2019-02-06T03:25:47.987Z,99.90
2019-02-06T03:28:14.403Z,99.90
2019-02-06T03:30:40.702Z,99.90
2019-02-06T03:33:07.020Z,99.90
2019-02-06T03:35:33.442Z,99.90
2019-02-06T03:37:59.659Z,99.90
2019-02-06T03:40:25.880Z,99.90
2019-02-06T03:42:52.200Z,99.90
2019-02-06T03:45:18.513Z,99.90
2019-02-06T03:47:44.945Z,99.90
2019-02-06T03:50:16.690Z,99.90
2019-02-06T03:52:43.303Z,99.90
2019-02-06T03:55:10.637Z,99.90
2019-02-06T03:57:37.134Z,99.90
2019-02-06T04:00:10.195Z,99.90
2019-02-06T04:02:36.498Z,99.90
2019-02-06T04:05:05.032Z,99.90
2019-02-06T04:07:31.450Z,99.90
2019-02-06T04:09:57.750Z,99.90
2019-02-06T04:12:23.976Z,99.90
2019-02-06T04:14:50.278Z,99.90
2019-02-06T04:17:16.497Z,99.90
2019-02-06T04:19:42.871Z,99.90
2019-02-06T04:22:09.184Z,99.90
2019-02-06T04:24:51.460Z,99.90
2019-02-06T04:27:15.627Z,99.90
2019-02-06T04:29:41.831Z,99.90
2019-02-06T04:32:08.045Z,99.90
2019-02-06T04:34:34.271Z,99.90
2019-02-06T04:37:06.597Z,99.90
2019-02-06T04:39:29.115Z,99.90
2019-02-06T04:41:55.472Z,99.90
2019-02-06T04:44:21.797Z,99.90
2019-02-06T04:46:48.106Z,99.90
2019-02-06T04:49:14.328Z,99.90
2019-02-06T04:51:40.635Z,99.90
2019-02-06T04:54:06.850Z,99.90
2019-02-06T04:56:33.556Z,99.90
2019-02-06T04:58:59.883Z,99.90
2019-02-06T05:01:26.093Z,99.90
2019-02-06T05:03:52.407Z,99.90
2019-02-06T05:06:18.606Z,99.90
2019-02-06T05:08:44.939Z,99.90
2019-02-06T05:11:11.236Z,99.90
2019-02-06T05:13:37.570Z,99.90
2019-02-06T05:16:03.872Z,99.90
2019-02-06T05:18:30.478Z,99.90
2019-02-06T05:20:56.702Z,99.90
2019-02-06T05:23:22.906Z,99.90
2019-02-06T05:25:49.175Z,99.90
2019-02-06T05:28:18.092Z,99.90
2019-02-06T05:30:43.563Z,99.90
2019-02-06T05:33:09.858Z,99.90
2019-02-06T05:35:36.304Z,99.90
2019-02-06T05:38:03.116Z,99.90
2019-02-06T05:40:29.418Z,99.90
2019-02-06T05:42:55.633Z,99.90
2019-02-06T05:45:21.954Z,99.90
2019-02-06T05:47:48.270Z,99.90
2019-02-06T05:50:17.294Z,99.90
2019-02-06T05:53:02.407Z,99.90
2019-02-06T05:55:28.613Z,99.90
2019-02-06T05:57:54.937Z,99.90
2019-02-06T06:00:27.383Z,99.90
2019-02-06T06:02:53.700Z,99.90
2019-02-06T06:05:20.094Z,99.90
2019-02-06T06:07:46.407Z,99.90
2019-02-06T06:10:15.431Z,99.90
2019-02-06T06:12:42.434Z,99.90
2019-02-06T06:15:10.360Z,99.90
2019-02-06T06:17:36.658Z,99.90
2019-02-06T06:20:06.588Z,99.90
2019-02-06T06:22:32.807Z,99.90
2019-02-06T06:24:59.220Z,99.90
2019-02-06T06:27:25.433Z,99.90
2019-02-06T06:29:51.727Z,99.90
2019-02-06T06:32:19.218Z,99.90
2019-02-06T06:34:45.447Z,99.90
2019-02-06T06:37:11.667Z,99.90
2019-02-06T06:39:37.870Z,99.90
2019-02-06T06:42:04.538Z,99.90
2019-02-06T06:44:30.743Z,99.90
2019-02-06T06:46:56.958Z,99.90
2019-02-06T06:49:23.167Z,99.90
2019-02-06T06:51:49.587Z,99.90
2019-02-06T06:54:16.186Z,99.90
2019-02-06T06:56:42.482Z,99.90
2019-02-06T06:59:08.811Z,99.90
2019-02-06T07:01:35.005Z,99.90
2019-02-06T07:04:01.434Z,99.90
2019-02-06T07:06:27.689Z,99.90
2019-02-06T07:08:53.991Z,99.90
2019-02-06T07:11:20.194Z,99.90
2019-02-06T07:13:46.723Z,99.90
2019-02-06T07:16:13.023Z,99.90
2019-02-06T07:18:39.250Z,99.90
2019-02-06T07:21:05.560Z,99.90
2019-02-06T07:23:31.958Z,99.90
2019-02-06T07:25:58.182Z,99.90
2019-02-06T07:28:24.391Z,99.90
2019-02-06T07:30:50.803Z,99.90
2019-02-06T07:33:17.409Z,99.90
2019-02-06T07:35:43.639Z,99.90
2019-02-06T07:38:16.963Z,99.90
2019-02-06T07:40:37.966Z,99.90
2019-02-06T07:43:04.278Z,99.90
2019-02-06T07:45:30.499Z,99.90
2019-02-06T07:47:56.706Z,99.90
2019-02-06T07:50:31.193Z,99.90
2019-02-06T07:52:58.117Z,99.90
2019-02-06T07:55:24.619Z,99.90
2019-02-06T07:57:50.839Z,99.90
2019-02-06T08:00:17.138Z,99.90
2019-02-06T08:02:44.063Z,99.90
2019-02-06T08:05:13.374Z,99.90
2019-02-06T08:07:39.695Z,99.90
2019-02-06T08:10:09.702Z,99.90
2019-02-06T08:12:36.038Z,99.90
2019-02-06T08:15:05.651Z,99.90
2019-02-06T08:17:31.855Z,99.90
2019-02-06T08:19:58.069Z,99.90
2019-02-06T08:22:24.269Z,99.90
2019-02-06T08:24:50.600Z,99.90
2019-02-06T08:27:16.800Z,99.90
2019-02-06T08:29:43.530Z,99.90
2019-02-06T08:32:09.733Z,99.90
2019-02-06T08:34:35.967Z,99.90
2019-02-06T08:37:02.378Z,99.90
2019-02-06T08:39:28.607Z,99.90
2019-02-06T08:41:54.910Z,99.90
2019-02-06T08:44:21.131Z,99.90
2019-02-06T08:46:47.326Z,99.90
2019-02-06T08:49:13.855Z,99.90
2019-02-06T08:51:40.162Z,99.90
2019-02-06T08:54:06.367Z,99.90
2019-02-06T08:56:33.554Z,99.90
2019-02-06T08:58:59.867Z,99.90
2019-02-06T09:01:26.487Z,99.90
2019-02-06T09:03:52.695Z,99.90
2019-02-06T09:06:18.906Z,99.90
2019-02-06T09:08:45.163Z,99.90
2019-02-06T09:11:11.832Z,99.90
2019-02-06T09:13:38.126Z,99.90
2019-02-06T09:16:04.569Z,99.90
2019-02-06T09:18:31.035Z,99.90
2019-02-06T09:20:57.351Z,99.90
2019-02-06T09:23:23.663Z,99.90
2019-02-06T09:25:49.962Z,99.90
2019-02-06T09:28:16.409Z,99.90
2019-02-06T09:30:43.299Z,99.90
2019-02-06T09:33:09.538Z,99.90
2019-02-06T09:35:35.843Z,99.90
2019-02-06T09:38:02.347Z,99.90
2019-02-06T09:40:30.076Z,99.90
2019-02-06T09:42:56.591Z,99.90
2019-02-06T09:45:23.119Z,99.90
2019-02-06T09:47:49.530Z,99.90
2019-02-06T09:50:18.686Z,99.90
2019-02-06T09:52:44.893Z,99.90
2019-02-06T09:55:11.701Z,99.90
2019-02-06T09:57:37.920Z,99.90
2019-02-06T10:00:08.046Z,99.90
2019-02-06T10:02:34.259Z,99.90
2019-02-06T10:05:00.682Z,99.90
2019-02-06T10:07:26.881Z,99.90
2019-02-06T10:09:53.615Z,99.90
2019-02-06T10:12:19.890Z,99.90
2019-02-06T10:14:46.106Z,99.90
2019-02-06T10:17:12.314Z,99.90
2019-02-06T10:19:38.630Z,99.90
2019-02-06T10:22:04.830Z,99.90
2019-02-06T10:24:31.059Z,99.90
2019-02-06T10:26:57.586Z,99.90
2019-02-06T10:29:23.906Z,99.90
2019-02-06T10:31:50.427Z,99.90
2019-02-06T10:34:16.621Z,99.90
2019-02-06T10:36:42.847Z,99.90
2019-02-06T10:39:09.046Z,99.90
2019-02-06T10:41:35.272Z,99.90
2019-02-06T10:44:01.578Z,99.90
2019-02-06T10:46:27.794Z,99.90
2019-02-06T10:48:54.003Z,99.90
2019-02-06T10:51:20.627Z,99.90
2019-02-06T10:53:46.821Z,99.90
2019-02-06T10:56:14.516Z,99.90
2019-02-06T10:58:40.810Z,99.90
2019-02-06T11:01:07.138Z,99.90
2019-02-06T11:03:33.850Z,99.90
2019-02-06T11:06:01.577Z,99.90
2019-02-06T11:08:27.874Z,99.90
2019-02-06T11:10:54.584Z,99.90
2019-02-06T11:13:21.127Z,99.90
2019-02-06T11:15:47.533Z,99.90
2019-02-06T11:18:13.858Z,99.90
2019-02-06T11:20:40.161Z,99.90
2019-02-06T11:23:06.890Z,98.90
2019-02-06T11:25:35.398Z,98.60
2019-02-06T11:28:02.017Z,97.50
2019-02-06T11:30:34.094Z,98.30
2019-02-06T11:33:00.469Z,97.80
2019-02-06T11:35:26.662Z,98.30
2019-02-06T11:37:53.093Z,99.90
2019-02-06T11:40:23.883Z,99.90
2019-02-06T11:42:50.919Z,99.90
2019-02-06T11:45:23.393Z,99.30
2019-02-06T11:47:49.816Z,97.70
2019-02-06T11:50:20.421Z,98.30
2019-02-06T11:52:47.256Z,95.80
2019-02-06T11:55:18.718Z,96.40
2019-02-06T11:57:44.942Z,91.80
2019-02-06T12:00:15.650Z,91.10
2019-02-06T12:02:42.622Z,91.00
2019-02-06T12:05:09.126Z,90.50
2019-02-06T12:07:35.453Z,90.20
2019-02-06T12:10:16.531Z,86.80
2019-02-06T12:12:42.926Z,87.90
2019-02-06T12:15:14.863Z,91.90
2019-02-06T12:17:41.535Z,92.70
2019-02-06T12:20:14.568Z,91.70
2019-02-06T12:22:40.990Z,92.60
2019-02-06T12:25:09.510Z,90.30
2019-02-06T12:27:35.821Z,90.30
2019-02-06T12:30:05.946Z,90.90
2019-02-06T12:32:32.484Z,94.10
2019-02-06T12:34:59.106Z,95.50
2019-02-06T12:37:25.302Z,95.40
2019-02-06T12:39:51.518Z,95.00
2019-02-06T12:42:18.006Z,95.70
2019-02-06T12:44:44.230Z,96.80
2019-02-06T12:47:10.431Z,98.10
2019-02-06T12:49:36.659Z,97.90
2019-02-06T12:52:03.509Z,97.10
2019-02-06T12:54:29.823Z,98.60
2019-02-06T12:56:56.022Z,95.10
2019-02-06T12:59:22.547Z,95.60
2019-02-06T13:01:48.855Z,96.20
2019-02-06T13:04:15.091Z,97.90
2019-02-06T13:06:41.342Z,97.90
2019-02-06T13:09:08.028Z,98.60
2019-02-06T13:11:34.396Z,99.90
2019-02-06T13:14:00.598Z,99.90
2019-02-06T13:16:26.822Z,99.90
2019-02-06T13:18:53.061Z,99.90
2019-02-06T13:21:19.784Z,99.90
2019-02-06T13:23:45.990Z,99.90
2019-02-06T13:26:12.206Z,99.90
2019-02-06T13:28:38.405Z,99.90
2019-02-06T13:31:04.972Z,99.90
2019-02-06T13:33:31.558Z,99.90
2019-02-06T13:35:57.778Z,99.90
2019-02-06T13:38:24.130Z,99.90
2019-02-06T13:40:50.902Z,99.90
2019-02-06T13:43:17.122Z,99.90
2019-02-06T13:45:46.051Z,99.90
2019-02-06T13:48:12.261Z,99.90
2019-02-06T13:50:38.863Z,99.90
2019-02-06T13:53:05.577Z,99.90
2019-02-06T13:55:32.332Z,99.90
2019-02-06T13:57:58.893Z,99.90
2019-02-06T14:00:28.486Z,99.90
2019-02-06T14:02:55.002Z,99.90
2019-02-06T14:05:23.906Z,99.90
2019-02-06T14:07:50.940Z,99.90
2019-02-06T14:10:21.042Z,99.90
2019-02-06T14:12:47.315Z,99.90
2019-02-06T14:15:17.040Z,99.90
2019-02-06T14:17:43.449Z,99.90
2019-02-06T14:20:15.534Z,99.90
2019-02-06T14:22:41.949Z,99.90
2019-02-06T14:25:21.021Z,99.90
2019-02-06T14:27:51.102Z,99.90
2019-02-06T14:30:33.492Z,99.90
2019-02-06T14:33:03.536Z,99.90
2019-02-06T14:36:01.256Z,99.90
2019-02-06T14:38:40.636Z,99.90
2019-02-06T14:41:10.767Z,99.90
2019-02-06T14:43:55.675Z,99.90
2019-02-06T14:46:31.147Z,99.90
2019-02-06T14:49:23.961Z,99.90
2019-02-06T14:52:12.278Z,99.90
2019-02-06T14:54:45.327Z,99.90
2019-02-06T14:57:30.436Z,99.90
2019-02-06T15:00:20.127Z,99.90
2019-02-06T15:03:16.036Z,99.90
2019-02-06T15:05:52.403Z,99.90
2019-02-06T15:08:31.626Z,99.90
2019-02-06T15:11:07.657Z,99.90
2019-02-06T15:13:46.441Z,99.90
2019-02-06T15:16:31.811Z,99.90
2019-02-06T15:19:07.698Z,99.90
2019-02-06T15:21:37.726Z,99.90
2019-02-06T15:24:29.411Z,99.90
2019-02-06T15:27:11.554Z,99.90
2019-02-06T15:30:04.642Z,99.90
2019-02-06T15:32:43.564Z,99.90
2019-02-06T15:35:22.765Z,99.90
2019-02-06T15:38:01.874Z,99.90
2019-02-06T15:40:49.679Z,99.90
2019-02-06T15:43:25.731Z,99.90
2019-02-06T15:46:19.208Z,99.90
2019-02-06T15:49:07.551Z,99.90
2019-02-06T15:51:50.353Z,99.90
2019-02-06T15:54:29.224Z,99.90
2019-02-06T15:57:05.542Z,99.90
2019-02-06T15:59:53.639Z,99.90
2019-02-06T16:02:29.527Z,99.90
2019-02-06T16:05:10.466Z,99.90
2019-02-06T16:07:49.886Z,99.90
2019-02-06T16:10:46.049Z,99.90
2019-02-06T16:13:22.006Z,99.90
2019-02-06T16:15:58.075Z,99.90
2019-02-06T16:18:33.978Z,99.90
2019-02-06T16:21:07.023Z,99.90
2019-02-06T16:23:53.627Z,99.90
2019-02-06T16:26:43.531Z,99.90
2019-02-06T16:29:16.410Z,99.90
2019-02-06T16:32:11.018Z,99.90
2019-02-06T16:34:49.567Z,99.90
2019-02-06T16:37:39.485Z,99.90
2019-02-06T16:40:38.567Z,99.90
2019-02-06T16:43:28.518Z,99.90
2019-02-06T16:46:32.319Z,99.90
2019-02-06T16:49:17.966Z,99.90
2019-02-06T16:52:12.297Z,99.90
2019-02-06T16:55:06.674Z,99.90
2019-02-06T16:58:00.675Z,99.90
2019-02-06T17:00:31.207Z,99.90
2019-02-06T17:03:27.079Z,99.90
2019-02-06T17:06:09.305Z,99.90
2019-02-06T17:08:57.378Z,99.90
2019-02-06T17:11:48.358Z,99.90
2019-02-06T17:14:21.454Z,99.90
2019-02-06T17:17:00.714Z,99.90
2019-02-06T17:19:46.187Z,99.90
2019-02-06T17:22:16.601Z,99.90
2019-02-06T17:24:46.614Z,99.90
2019-02-06T17:27:25.802Z,99.90
2019-02-06T17:30:01.862Z,99.90
2019-02-06T17:32:53.814Z,99.90
2019-02-06T17:35:41.474Z,99.90
2019-02-06T17:38:14.219Z,99.90
2019-02-06T17:41:02.379Z,99.90
2019-02-06T17:43:32.475Z,99.90
2019-02-06T17:46:02.842Z,99.90
2019-02-06T17:48:56.197Z,99.90
2019-02-06T17:51:38.326Z,99.90
2019-02-06T17:54:24.959Z,99.90
2019-02-06T17:56:51.283Z,99.90
2019-02-06T17:59:17.586Z,99.90
2019-02-06T18:01:43.806Z,99.90
2019-02-06T18:04:10.114Z,99.90
2019-02-06T18:06:36.442Z,99.90
2019-02-06T18:09:06.454Z,99.90
2019-02-06T18:11:32.754Z,99.90
2019-02-06T18:13:59.223Z,99.90
2019-02-06T18:16:25.490Z,99.90
2019-02-06T18:18:51.841Z,99.90
2019-02-06T18:21:18.353Z,99.90
2019-02-06T18:23:45.074Z,99.90
2019-02-06T18:26:11.490Z,99.90
2019-02-06T18:28:38.083Z,99.90
2019-02-06T18:31:05.206Z,99.90
2019-02-06T18:33:31.459Z,99.90
2019-02-06T18:35:57.866Z,99.90
2019-02-06T18:38:24.306Z,99.90
2019-02-06T18:40:50.610Z,99.90
2019-02-06T18:43:17.384Z,99.90
2019-02-06T18:45:43.803Z,99.90
2019-02-06T18:48:10.214Z,99.90
2019-02-06T18:50:38.742Z,99.90
2019-02-06T18:53:06.350Z,99.90
2019-02-06T18:55:33.585Z,99.90
2019-02-06T18:58:00.087Z,99.90
2019-02-06T19:00:32.149Z,99.90
2019-02-06T19:02:58.355Z,99.90
2019-02-06T19:05:28.513Z,99.90
2019-02-06T19:07:54.922Z,99.90
2019-02-06T19:10:24.575Z,99.90
2019-02-06T19:12:50.970Z,99.90
2019-02-06T19:15:24.270Z,99.90
2019-02-06T19:17:50.679Z,99.90
2019-02-06T19:20:18.096Z,99.90
2019-02-06T19:22:44.416Z,99.90
2019-02-06T19:25:12.922Z,99.90
2019-02-06T19:27:39.246Z,99.90
2019-02-06T19:30:09.353Z,99.90
2019-02-06T19:32:35.675Z,99.90
2019-02-06T19:35:02.987Z,99.90
2019-02-06T19:37:29.597Z,99.90
2019-02-06T19:39:55.806Z,99.90
2019-02-06T19:42:22.126Z,99.90
2019-02-06T19:44:48.818Z,99.90
2019-02-06T19:47:15.170Z,99.90
2019-02-06T19:49:41.457Z,99.90
2019-02-06T19:52:08.175Z,99.90
2019-02-06T19:54:34.483Z,99.90
2019-02-06T19:57:00.802Z,99.90
2019-02-06T19:59:27.119Z,99.90
2019-02-06T20:01:53.840Z,99.90
2019-02-06T20:04:20.156Z,99.90
2019-02-06T20:06:46.477Z,99.90
2019-02-06T20:09:13.092Z,99.90
2019-02-06T20:11:39.630Z,99.90
2019-02-06T20:14:18.883Z,99.90
2019-02-06T20:16:46.222Z,99.90
2019-02-06T20:19:12.690Z,99.90
2019-02-06T20:21:39.318Z,99.90
2019-02-06T20:24:06.228Z,99.90
2019-02-06T20:26:32.590Z,99.90
2019-02-06T20:28:58.882Z,99.90
2019-02-06T20:31:25.207Z,99.90
2019-02-06T20:33:51.707Z,99.90
2019-02-06T20:36:18.041Z,99.90
2019-02-06T20:38:44.347Z,99.90
2019-02-06T20:41:10.659Z,99.90
2019-02-06T20:43:55.868Z,99.90
2019-02-06T20:46:22.166Z,99.90
2019-02-06T20:48:48.493Z,99.90
2019-02-06T20:51:14.806Z,99.90
2019-02-06T20:53:41.131Z,99.90
2019-02-06T20:56:07.535Z,99.90
2019-02-06T20:58:33.850Z,99.90
2019-02-06T21:01:00.158Z,99.90
2019-02-06T21:03:39.966Z,99.90
2019-02-06T21:06:06.180Z,99.90
2019-02-06T21:08:32.498Z,99.90
2019-02-06T21:10:58.706Z,99.90
2019-02-06T21:13:32.806Z,99.90
2019-02-06T21:15:53.183Z,99.90
2019-02-06T21:18:19.886Z,99.90
2019-02-06T21:20:46.211Z,99.90
2019-02-06T21:23:12.519Z,99.90
2019-02-06T21:25:38.834Z,99.90
2019-02-06T21:28:05.130Z,99.90
2019-02-06T21:30:34.650Z,99.90
2019-02-06T21:33:00.954Z,99.90
2019-02-06T21:35:27.174Z,99.90
2019-02-06T21:37:53.876Z,99.90
2019-02-06T21:40:35.574Z,99.90
2019-02-06T21:43:02.570Z,99.90
2019-02-06T21:45:29.003Z,99.90
2019-02-06T21:47:55.302Z,99.90
2019-02-06T21:50:23.631Z,99.90
2019-02-06T21:52:51.234Z,99.90
2019-02-06T21:55:22.205Z,99.90
2019-02-06T21:57:48.810Z,99.90
2019-02-06T22:00:18.849Z,99.90
2019-02-06T22:02:45.158Z,99.90
2019-02-06T22:05:14.259Z,99.90
2019-02-06T22:07:39.773Z,99.90
2019-02-06T22:10:09.990Z,99.90
2019-02-06T22:12:36.422Z,99.90
2019-02-06T22:15:24.501Z,99.90
2019-02-06T22:17:50.944Z,99.90
2019-02-06T22:20:17.534Z,99.90
2019-02-06T22:22:44.962Z,99.90
2019-02-06T22:25:11.364Z,99.90
2019-02-06T22:27:37.790Z,99.90
2019-02-06T22:30:16.114Z,99.90
2019-02-06T22:32:42.556Z,99.90
2019-02-06T22:35:11.951Z,99.90
2019-02-06T22:37:37.987Z,99.90
2019-02-06T22:40:13.540Z,99.90
2019-02-06T22:42:40.054Z,99.90
2019-02-06T22:45:12.806Z,99.90
2019-02-06T22:47:39.120Z,99.90
2019-02-06T22:50:11.637Z,99.90
2019-02-06T22:52:38.150Z,99.90
2019-02-06T22:55:06.663Z,99.90
2019-02-06T22:57:32.978Z,99.90
2019-02-06T22:59:59.303Z,99.90
2019-02-06T23:02:25.707Z,99.90
2019-02-06T23:04:52.111Z,99.90
2019-02-06T23:07:18.531Z,99.90
2019-02-06T23:09:44.826Z,99.90
2019-02-06T23:12:11.171Z,99.90
2019-02-06T23:14:37.403Z,99.90
2019-02-06T23:17:03.817Z,99.90
2019-02-06T23:19:30.210Z,99.90
2019-02-06T23:21:56.517Z,99.90
2019-02-06T23:24:22.719Z,99.90
2019-02-06T23:26:48.939Z,99.90
2019-02-06T23:29:15.643Z,99.90
2019-02-06T23:31:41.867Z,99.90
2019-02-06T23:34:08.161Z,99.90
2019-02-06T23:36:34.386Z,99.90
2019-02-06T23:39:00.591Z,99.90
2019-02-06T23:41:26.789Z,99.90
2019-02-06T23:43:53.110Z,99.90
2019-02-06T23:46:19.416Z,99.90
2019-02-06T23:48:45.931Z,99.90
2019-02-06T23:51:12.239Z,99.90
2019-02-06T23:53:38.462Z,99.90
2019-02-06T23:56:04.867Z,99.90
2019-02-06T23:58:31.219Z,99.90
